createdAt,value
2018-05-15T00:02:03.837Z,17.04
2018-05-15T00:04:31.400Z,17.04
2018-05-15T00:06:58.995Z,16.96
2018-05-15T00:09:26.621Z,16.88
2018-05-15T00:11:54.231Z,16.92
2018-05-15T00:14:21.944Z,16.86
2018-05-15T00:16:49.526Z,16.81
2018-05-15T00:19:17.345Z,16.78
2018-05-15T00:21:44.937Z,16.81
2018-05-15T00:24:12.521Z,16.80
2018-05-15T00:26:40.138Z,16.81
2018-05-15T00:29:07.744Z,16.58
2018-05-15T00:31:35.350Z,16.54
2018-05-15T00:34:03.067Z,16.52
2018-05-15T00:36:30.827Z,16.42
2018-05-15T00:38:58.417Z,16.47
2018-05-15T00:41:26.006Z,16.47
2018-05-15T00:43:53.633Z,16.49
2018-05-15T00:46:21.218Z,16.38
2018-05-15T00:48:48.833Z,16.44
2018-05-15T00:51:16.442Z,16.38
2018-05-15T00:53:44.048Z,16.41
2018-05-15T00:56:11.643Z,16.41
2018-05-15T00:58:39.253Z,16.37
2018-05-15T01:01:06.849Z,16.24
2018-05-15T01:03:34.698Z,16.26
2018-05-15T01:06:02.289Z,16.37
2018-05-15T01:08:29.906Z,16.20
2018-05-15T01:10:57.521Z,16.22
2018-05-15T01:13:25.123Z,16.26
2018-05-15T01:15:52.751Z,16.24
2018-05-15T01:18:20.367Z,16.24
2018-05-15T01:20:47.954Z,16.20
2018-05-15T01:23:15.563Z,16.21
2018-05-15T01:25:43.163Z,16.12
2018-05-15T01:28:10.787Z,16.18
2018-05-15T01:30:38.370Z,16.12
2018-05-15T01:33:05.979Z,15.96
2018-05-15T01:35:33.607Z,16.07
2018-05-15T01:38:01.209Z,16.08
2018-05-15T01:40:28.846Z,16.12
2018-05-15T01:42:56.449Z,16.14
2018-05-15T01:45:24.104Z,16.13
2018-05-15T01:47:51.709Z,16.13
2018-05-15T01:50:19.306Z,16.11
2018-05-15T01:52:46.939Z,16.15
2018-05-15T01:55:14.533Z,16.10
2018-05-15T01:57:42.145Z,16.07
2018-05-15T02:00:09.747Z,16.15
2018-05-15T02:02:37.591Z,16.16
2018-05-15T02:05:05.186Z,16.13
2018-05-15T02:07:32.785Z,16.17
2018-05-15T02:10:00.397Z,16.15
2018-05-15T02:12:27.993Z,16.00
2018-05-15T02:14:56.268Z,16.02
2018-05-15T02:17:23.858Z,15.99
2018-05-15T02:19:51.496Z,15.95
2018-05-15T02:22:19.086Z,16.00
2018-05-15T02:24:46.679Z,15.96
2018-05-15T02:27:14.307Z,16.01
2018-05-15T02:29:41.906Z,16.01
2018-05-15T02:32:09.513Z,15.87
2018-05-15T02:34:37.204Z,15.90
2018-05-15T02:37:04.825Z,15.89
2018-05-15T02:39:32.418Z,15.93
2018-05-15T02:42:00.020Z,15.88
2018-05-15T02:44:27.644Z,15.85
2018-05-15T02:46:55.240Z,15.88
2018-05-15T02:49:22.853Z,15.85
2018-05-15T02:51:50.462Z,15.77
2018-05-15T02:54:18.145Z,15.82
2018-05-15T02:56:45.734Z,15.71
2018-05-15T02:59:13.325Z,15.70
2018-05-15T03:01:40.942Z,15.67
2018-05-15T03:04:08.537Z,15.77
2018-05-15T03:06:36.154Z,15.69
2018-05-15T03:09:03.768Z,15.68
2018-05-15T03:11:31.608Z,15.67
2018-05-15T03:13:59.303Z,15.63
2018-05-15T03:16:26.882Z,15.66
2018-05-15T03:18:54.721Z,15.63
2018-05-15T03:21:22.306Z,15.62
2018-05-15T03:23:50.144Z,15.60
2018-05-15T03:26:17.742Z,15.59
2018-05-15T03:28:45.342Z,15.56
2018-05-15T03:31:12.955Z,15.55
2018-05-15T03:33:40.549Z,15.46
2018-05-15T03:36:08.358Z,15.45
2018-05-15T03:38:35.952Z,15.40
2018-05-15T03:41:03.540Z,15.47
2018-05-15T03:43:31.169Z,15.42
2018-05-15T03:45:58.774Z,15.42
2018-05-15T03:48:26.427Z,15.40
2018-05-15T03:50:54.022Z,15.42
2018-05-15T03:53:21.694Z,15.37
2018-05-15T03:55:49.284Z,15.41
2018-05-15T03:58:16.904Z,15.55
2018-05-15T04:00:56.422Z,15.57
2018-05-15T04:03:35.804Z,15.64
2018-05-15T04:06:15.176Z,15.54
2018-05-15T04:08:42.823Z,15.61
2018-05-15T04:11:10.546Z,15.59
2018-05-15T04:13:38.151Z,15.48
2018-05-15T04:16:05.775Z,15.51
2018-05-15T04:18:33.401Z,15.50
2018-05-15T04:21:01.210Z,15.59
2018-05-15T04:23:28.803Z,15.63
2018-05-15T04:25:56.431Z,15.68
2018-05-15T04:28:24.124Z,15.76
2018-05-15T04:30:51.655Z,15.86
2018-05-15T04:33:19.260Z,15.86
2018-05-15T04:35:46.858Z,15.86
2018-05-15T04:38:14.489Z,15.87
2018-05-15T04:40:42.085Z,15.93
2018-05-15T04:43:09.670Z,15.89
2018-05-15T04:45:37.305Z,15.97
2018-05-15T04:48:05.401Z,16.02
2018-05-15T04:50:33.017Z,15.95
2018-05-15T04:53:00.620Z,15.97
2018-05-15T04:55:28.388Z,15.99
2018-05-15T04:57:55.989Z,16.01
2018-05-15T05:00:23.607Z,15.93
2018-05-15T05:02:51.229Z,15.92
2018-05-15T05:05:18.830Z,15.83
2018-05-15T05:07:46.455Z,15.86
2018-05-15T05:10:14.055Z,15.90
2018-05-15T05:12:41.934Z,15.94
2018-05-15T05:15:09.538Z,16.01
2018-05-15T05:17:37.436Z,15.96
2018-05-15T05:20:05.069Z,15.99
2018-05-15T05:22:32.678Z,15.89
2018-05-15T05:25:00.294Z,15.95
2018-05-15T05:27:27.899Z,16.01
2018-05-15T05:29:55.688Z,16.12
2018-05-15T05:32:23.305Z,16.01
2018-05-15T05:34:50.892Z,16.06
2018-05-15T05:37:18.515Z,16.13
2018-05-15T05:39:46.113Z,16.26
2018-05-15T05:42:13.753Z,16.33
2018-05-15T05:44:41.342Z,16.33
2018-05-15T05:47:08.973Z,16.43
2018-05-15T05:49:36.569Z,16.46
2018-05-15T05:52:04.260Z,16.42
2018-05-15T05:54:31.811Z,16.29
2018-05-15T05:56:59.444Z,16.38
2018-05-15T05:59:27.061Z,16.37
2018-05-15T06:01:54.664Z,16.41
2018-05-15T06:04:22.639Z,16.42
2018-05-15T06:06:50.240Z,16.33
2018-05-15T06:09:17.851Z,16.44
2018-05-15T06:11:45.482Z,16.66
2018-05-15T06:14:13.106Z,16.66
2018-05-15T06:16:40.713Z,16.59
2018-05-15T06:19:08.305Z,16.51
2018-05-15T06:21:36.062Z,16.58
2018-05-15T06:24:03.664Z,16.49
2018-05-15T06:26:31.270Z,16.62
2018-05-15T06:28:58.904Z,16.69
2018-05-15T06:31:26.508Z,16.80
2018-05-15T06:33:54.137Z,16.94
2018-05-15T06:36:21.764Z,17.02
2018-05-15T06:38:49.566Z,17.07
2018-05-15T06:41:17.171Z,17.20
2018-05-15T06:43:44.766Z,17.38
2018-05-15T06:46:12.382Z,17.22
2018-05-15T06:48:40.988Z,17.38
2018-05-15T06:51:08.601Z,17.43
2018-05-15T06:53:36.215Z,17.60
2018-05-15T06:56:04.266Z,17.65
2018-05-15T06:58:31.863Z,17.61
2018-05-15T07:00:59.458Z,17.62
2018-05-15T07:03:27.073Z,17.66
2018-05-15T07:05:54.655Z,17.74
2018-05-15T07:08:22.273Z,17.79
2018-05-15T07:10:49.994Z,17.74
2018-05-15T07:13:17.622Z,17.81
2018-05-15T07:15:45.261Z,17.92
2018-05-15T07:18:12.864Z,17.95
2018-05-15T07:20:40.493Z,17.99
2018-05-15T07:23:08.083Z,18.08
2018-05-15T07:25:35.763Z,18.23
2018-05-15T07:28:03.412Z,18.38
2018-05-15T07:30:31.146Z,18.41
2018-05-15T07:32:58.853Z,18.58
2018-05-15T07:35:31.981Z,18.50
2018-05-15T07:37:59.969Z,18.37
2018-05-15T07:40:27.678Z,18.22
2018-05-15T07:42:55.636Z,18.44
2018-05-15T07:45:23.228Z,18.60
2018-05-15T07:47:50.827Z,18.75
2018-05-15T07:50:19.212Z,18.80
2018-05-15T07:52:46.811Z,18.89
2018-05-15T07:55:14.421Z,18.78
2018-05-15T07:57:42.015Z,18.74
2018-05-15T08:00:09.829Z,18.86
2018-05-15T08:02:37.426Z,19.01
2018-05-15T08:05:05.047Z,18.94
2018-05-15T08:07:43.233Z,18.95
2018-05-15T08:10:21.472Z,18.96
2018-05-15T08:12:49.985Z,19.12
2018-05-15T08:15:24.654Z,19.23
2018-05-15T08:17:53.170Z,19.07
2018-05-15T08:20:20.934Z,19.16
2018-05-15T08:22:48.933Z,19.33
2018-05-15T08:25:16.822Z,19.41
2018-05-15T08:27:44.799Z,19.53
2018-05-15T08:30:12.838Z,19.48
2018-05-15T08:32:40.811Z,19.44
2018-05-15T08:35:08.856Z,19.40
2018-05-15T08:37:36.692Z,19.49
2018-05-15T08:40:04.514Z,19.53
2018-05-15T08:42:32.145Z,19.61
2018-05-15T08:44:59.739Z,19.58
2018-05-15T08:47:27.373Z,19.73
2018-05-15T08:49:54.961Z,19.89
2018-05-15T08:52:22.623Z,19.93
2018-05-15T08:54:50.233Z,19.99
2018-05-15T08:57:17.830Z,19.93
2018-05-15T08:59:45.491Z,19.96
2018-05-15T09:02:13.100Z,19.99
2018-05-15T09:04:40.928Z,20.04
2018-05-15T09:07:20.755Z,20.19
2018-05-15T09:09:49.193Z,20.31
2018-05-15T09:35:30.256Z,21.00
2018-05-15T09:37:57.842Z,21.10
2018-05-15T09:40:25.450Z,21.03
2018-05-15T09:42:53.039Z,21.13
2018-05-15T09:45:21.136Z,20.86
2018-05-15T09:47:48.958Z,20.89
2018-05-15T09:50:16.751Z,20.90
2018-05-15T09:52:44.672Z,20.72
2018-05-15T09:55:12.603Z,20.57
2018-05-15T09:57:40.574Z,20.60
2018-05-15T10:00:08.449Z,20.38
2018-05-15T10:02:36.693Z,20.56
2018-05-15T10:05:04.691Z,20.90
2018-05-15T10:07:32.592Z,21.00
2018-05-15T10:10:00.590Z,21.16
2018-05-15T10:12:28.394Z,21.45
2018-05-15T10:14:56.366Z,21.48
2018-05-15T10:17:24.835Z,21.49
2018-05-15T10:19:53.294Z,21.11
2018-05-15T10:22:20.874Z,21.11
2018-05-15T10:24:48.463Z,21.19
2018-05-15T10:27:16.083Z,21.16
2018-05-15T10:29:43.759Z,21.16
2018-05-15T10:32:12.277Z,21.23
2018-05-15T10:34:40.114Z,21.14
2018-05-15T10:37:08.168Z,21.20
2018-05-15T10:39:35.776Z,21.31
2018-05-15T10:42:03.424Z,21.34
2018-05-15T10:44:32.858Z,21.45
2018-05-15T10:47:00.454Z,21.29
2018-05-15T10:49:28.098Z,21.24
2018-05-15T10:51:56.116Z,21.25
2018-05-15T10:54:23.787Z,21.28
2018-05-15T10:56:51.420Z,21.25
2018-05-15T10:59:19.015Z,21.43
2018-05-15T11:01:46.620Z,21.47
2018-05-15T11:04:14.222Z,21.54
2018-05-15T11:06:43.926Z,21.66
2018-05-15T11:09:11.564Z,21.85
2018-05-15T11:11:39.252Z,21.81
2018-05-15T11:14:06.872Z,21.80
2018-05-15T11:16:34.461Z,21.75
2018-05-15T11:19:13.819Z,21.68
2018-05-15T11:21:53.366Z,21.23
2018-05-15T11:24:32.858Z,21.34
2018-05-15T11:27:00.466Z,21.43
2018-05-15T11:29:28.113Z,21.17
2018-05-15T11:31:55.736Z,21.44
2018-05-15T11:34:23.333Z,21.64
2018-05-15T11:36:51.000Z,21.64
2018-05-15T11:39:18.611Z,21.35
2018-05-15T11:41:46.491Z,21.39
2018-05-15T11:44:14.409Z,21.03
2018-05-15T11:46:42.017Z,21.00
2018-05-15T11:49:10.247Z,20.83
2018-05-15T11:51:38.123Z,20.84
2018-05-15T11:54:05.055Z,21.42
2018-05-15T11:56:32.726Z,21.65
2018-05-15T11:59:00.540Z,21.75
2018-05-15T12:01:28.123Z,21.77
2018-05-15T12:03:56.021Z,21.70
2018-05-15T12:06:23.903Z,21.44
2018-05-15T12:08:51.541Z,20.67
2018-05-15T12:11:19.150Z,20.22
2018-05-15T12:14:00.281Z,19.94
2018-05-15T12:16:28.814Z,19.58
2018-05-15T12:18:56.405Z,19.51
2018-05-15T12:21:24.063Z,19.50
2018-05-15T12:23:52.154Z,19.38
2018-05-15T12:26:19.747Z,19.25
2018-05-15T12:28:47.370Z,18.94
2018-05-15T12:31:14.976Z,18.75
2018-05-15T12:33:42.586Z,18.56
2018-05-15T12:36:10.182Z,18.71
2018-05-15T12:38:37.803Z,18.76
2018-05-15T12:41:05.423Z,18.88
2018-05-15T12:43:33.028Z,19.08
2018-05-15T12:46:00.667Z,19.39
2018-05-15T12:48:28.345Z,19.64
2018-05-15T12:50:55.898Z,19.59
2018-05-15T12:53:23.483Z,19.98
2018-05-15T12:55:51.258Z,20.17
2018-05-15T12:58:18.919Z,20.25
2018-05-15T13:00:46.512Z,20.14
2018-05-15T13:03:14.141Z,20.13
2018-05-15T13:05:41.733Z,19.91
2018-05-15T13:08:09.470Z,19.89
2018-05-15T13:10:37.065Z,20.00
2018-05-15T13:13:04.681Z,19.96
2018-05-15T13:15:32.315Z,19.82
2018-05-15T13:17:59.898Z,19.82
2018-05-15T13:20:27.614Z,19.84
2018-05-15T13:22:55.190Z,19.78
2018-05-15T13:25:22.794Z,19.63
2018-05-15T13:27:50.422Z,19.87
2018-05-15T13:30:18.042Z,20.27
2018-05-15T13:32:46.869Z,20.30
2018-05-15T13:35:14.552Z,20.17
2018-05-15T13:37:42.754Z,20.45
2018-05-15T13:40:10.482Z,20.63
2018-05-15T13:42:38.098Z,20.88
2018-05-15T13:45:05.682Z,20.94
2018-05-15T13:47:33.299Z,20.83
2018-05-15T13:50:00.934Z,20.65
2018-05-15T13:52:28.545Z,20.57
2018-05-15T13:54:56.171Z,20.51
2018-05-15T13:57:23.795Z,20.53
2018-05-15T13:59:51.700Z,20.55
2018-05-15T14:02:19.288Z,20.59
2018-05-15T14:04:47.048Z,21.02
2018-05-15T14:07:14.707Z,21.13
2018-05-15T14:09:42.368Z,21.17
2018-05-15T14:12:09.973Z,21.16
2018-05-15T14:14:37.575Z,21.05
2018-05-15T14:17:05.183Z,20.91
2018-05-15T14:19:32.771Z,20.76
2018-05-15T14:22:00.388Z,20.70
2018-05-15T14:24:27.979Z,20.71
2018-05-15T14:26:55.587Z,20.49
2018-05-15T14:29:24.063Z,20.36
2018-05-15T14:31:51.714Z,20.31
2018-05-15T14:34:19.316Z,20.25
2018-05-15T14:36:47.032Z,20.16
2018-05-15T14:39:14.636Z,19.95
2018-05-15T14:41:54.264Z,19.95
2018-05-15T14:44:21.870Z,19.91
2018-05-15T14:46:49.718Z,19.80
2018-05-15T14:49:17.347Z,19.83
2018-05-15T14:51:44.948Z,19.78
2018-05-15T14:54:13.444Z,19.69
2018-05-15T14:56:41.040Z,19.64
2018-05-15T14:59:08.765Z,19.61
2018-05-15T15:01:36.362Z,19.49
2018-05-15T15:04:03.987Z,19.39
2018-05-15T15:06:31.622Z,19.35
2018-05-15T15:08:59.250Z,19.11
2018-05-15T15:11:26.841Z,19.01
2018-05-15T15:13:54.461Z,18.99
2018-05-15T15:16:22.135Z,19.05
2018-05-15T15:18:49.749Z,18.98
2018-05-15T15:21:17.352Z,18.87
2018-05-15T15:23:45.062Z,18.84
2018-05-15T15:26:12.592Z,18.91
2018-05-15T15:28:40.216Z,18.85
2018-05-15T15:31:07.818Z,18.87
2018-05-15T15:33:35.443Z,18.88
2018-05-15T15:36:03.034Z,18.88
2018-05-15T15:38:30.654Z,19.11
2018-05-15T15:40:58.243Z,18.84
2018-05-15T15:43:25.872Z,18.86
2018-05-15T15:45:53.503Z,18.85
2018-05-15T15:48:21.129Z,18.94
2018-05-15T15:50:48.725Z,18.88
2018-05-15T15:53:16.329Z,18.98
2018-05-15T15:55:44.052Z,18.78
2018-05-15T15:58:11.660Z,18.75
2018-05-15T16:00:39.298Z,18.79
2018-05-15T16:03:06.902Z,19.06
2018-05-15T16:05:34.693Z,18.98
2018-05-15T16:08:02.313Z,19.03
2018-05-15T16:10:29.910Z,18.96
2018-05-15T16:12:57.591Z,19.13
2018-05-15T16:15:25.253Z,19.08
2018-05-15T16:17:52.862Z,19.18
2018-05-15T16:20:20.451Z,18.97
2018-05-15T16:22:48.090Z,18.73
2018-05-15T16:25:15.689Z,18.59
2018-05-15T16:27:43.557Z,18.75
2018-05-15T16:30:11.151Z,18.66
2018-05-15T16:32:39.023Z,18.69
2018-05-15T16:35:06.679Z,18.71
2018-05-15T16:37:34.422Z,18.85
2018-05-15T16:40:02.089Z,19.05
2018-05-15T16:42:29.700Z,19.09
2018-05-15T16:44:57.409Z,19.00
2018-05-15T16:47:25.032Z,18.83
2018-05-15T16:49:52.666Z,18.34
2018-05-15T16:52:20.263Z,18.19
2018-05-15T16:54:47.888Z,18.12
2018-05-15T16:57:15.517Z,17.83
2018-05-15T16:59:43.244Z,17.98
2018-05-15T17:02:10.948Z,17.86
2018-05-15T17:04:38.542Z,17.72
2018-05-15T17:07:06.230Z,17.16
2018-05-15T17:09:33.839Z,17.44
2018-05-15T17:12:01.442Z,17.72
2018-05-15T17:14:29.071Z,17.56
2018-05-15T17:16:56.679Z,17.53
2018-05-15T17:19:24.300Z,17.33
2018-05-15T17:21:51.894Z,17.07
2018-05-15T17:24:19.550Z,17.02
2018-05-15T17:26:47.154Z,16.99
2018-05-15T17:29:14.759Z,17.03
2018-05-15T17:31:42.390Z,16.75
2018-05-15T17:34:09.994Z,16.59
2018-05-15T17:36:37.619Z,16.57
2018-05-15T17:39:05.897Z,16.68
2018-05-15T17:41:33.534Z,16.55
2018-05-15T17:44:01.140Z,16.54
2018-05-15T17:46:28.760Z,16.44
2018-05-15T17:48:56.359Z,16.32
2018-05-15T17:51:24.150Z,16.33
2018-05-15T17:53:52.157Z,16.33
2018-05-15T17:56:19.762Z,16.44
2018-05-15T17:58:47.381Z,16.41
2018-05-15T18:01:15.156Z,16.29
2018-05-15T18:03:42.787Z,16.34
2018-05-15T18:06:10.392Z,16.39
2018-05-15T18:08:38.036Z,16.28
2018-05-15T18:11:05.650Z,16.21
2018-05-15T18:13:33.282Z,16.22
2018-05-15T18:16:00.891Z,16.20
2018-05-15T18:18:28.511Z,16.25
2018-05-15T18:20:56.118Z,16.27
2018-05-15T18:23:23.731Z,16.33
2018-05-15T18:25:51.316Z,16.25
2018-05-15T18:28:18.933Z,16.29
2018-05-15T18:30:46.538Z,16.11
2018-05-15T18:33:14.390Z,15.99
2018-05-15T18:35:41.961Z,16.21
2018-05-15T18:38:09.566Z,16.12
2018-05-15T18:40:37.175Z,15.99
2018-05-15T18:43:04.771Z,16.02
2018-05-15T18:45:32.390Z,16.04
2018-05-15T18:47:59.992Z,15.37
2018-05-15T18:50:27.623Z,15.08
2018-05-15T18:52:55.211Z,15.24
2018-05-15T18:55:24.030Z,14.76
2018-05-15T18:57:51.657Z,14.59
2018-05-15T19:00:19.300Z,14.55
2018-05-15T19:02:46.901Z,14.73
2018-05-15T19:05:14.534Z,14.71
2018-05-15T19:07:42.255Z,14.84
2018-05-15T19:10:09.870Z,14.74
2018-05-15T19:12:37.579Z,14.76
2018-05-15T19:15:05.180Z,14.61
2018-05-15T19:17:33.020Z,14.53
2018-05-15T19:20:00.625Z,14.60
2018-05-15T19:22:28.230Z,14.71
2018-05-15T19:24:55.946Z,14.79
2018-05-15T19:27:23.558Z,14.75
2018-05-15T19:29:51.181Z,14.86
2018-05-15T19:32:18.782Z,14.97
2018-05-15T19:34:52.065Z,14.95
2018-05-15T19:37:19.663Z,15.00
2018-05-15T19:39:47.278Z,14.86
2018-05-15T19:42:15.000Z,14.79
2018-05-15T19:44:42.919Z,14.86
2018-05-15T19:47:10.514Z,14.83
2018-05-15T19:49:38.105Z,14.91
2018-05-15T19:52:05.740Z,14.73
2018-05-15T19:54:33.353Z,14.77
2018-05-15T19:57:00.962Z,14.97
2018-05-15T19:59:28.555Z,14.85
2018-05-15T20:01:56.203Z,14.39
2018-05-15T20:04:23.808Z,14.42
2018-05-15T20:06:51.404Z,14.24
2018-05-15T20:09:19.026Z,14.38
2018-05-15T20:11:46.646Z,14.24
2018-05-15T20:14:14.568Z,14.23
2018-05-15T20:16:42.167Z,14.23
2018-05-15T20:19:09.771Z,14.37
2018-05-15T20:21:37.394Z,14.24
2018-05-15T20:24:04.997Z,14.40
2018-05-15T20:26:32.782Z,14.39
2018-05-15T20:29:00.393Z,14.25
2018-05-15T20:31:28.002Z,14.37
2018-05-15T20:33:55.618Z,14.20
2018-05-15T20:36:23.236Z,14.32
2018-05-15T20:38:50.871Z,13.98
2018-05-15T20:41:18.482Z,13.94
2018-05-15T20:43:46.323Z,14.00
2018-05-15T20:46:13.925Z,13.77
2018-05-15T20:48:41.518Z,13.88
2018-05-15T20:51:09.134Z,13.96
2018-05-15T20:53:36.729Z,14.06
2018-05-15T20:56:04.344Z,14.03
2018-05-15T20:58:31.945Z,14.07
2018-05-15T21:00:59.762Z,14.04
2018-05-15T21:03:27.380Z,14.08
2018-05-15T21:05:54.997Z,14.27
2018-05-15T21:08:22.690Z,14.01
2018-05-15T21:10:50.298Z,13.91
2018-05-15T21:13:18.037Z,14.10
2018-05-15T21:15:45.621Z,13.98
2018-05-15T21:18:13.243Z,13.88
2018-05-15T21:20:40.838Z,13.70
2018-05-15T21:23:08.624Z,13.87
2018-05-15T21:25:36.229Z,13.87
2018-05-15T21:28:03.810Z,14.04
2018-05-15T21:30:31.430Z,14.07
2018-05-15T21:32:59.035Z,14.02
2018-05-15T21:35:26.650Z,14.06
2018-05-15T21:37:54.246Z,14.05
2018-05-15T21:40:22.051Z,14.00
2018-05-15T21:42:49.655Z,14.17
2018-05-15T21:45:17.254Z,14.20
2018-05-15T21:47:44.867Z,14.04
2018-05-15T21:50:12.469Z,14.07
2018-05-15T21:52:40.131Z,14.22
2018-05-15T21:55:07.727Z,14.18
2018-05-15T21:57:35.530Z,14.21
2018-05-15T22:00:03.121Z,14.29
2018-05-15T22:02:30.734Z,14.20
2018-05-15T22:04:58.345Z,14.16
2018-05-15T22:07:25.942Z,14.31
2018-05-15T22:09:53.564Z,14.22
2018-05-15T22:12:32.900Z,14.04
2018-05-15T22:15:12.256Z,14.03
2018-05-15T22:17:51.659Z,14.10
2018-05-15T22:20:31.044Z,14.11
2018-05-15T22:22:58.068Z,14.19
2018-05-15T22:25:25.690Z,14.23
2018-05-15T22:27:53.296Z,14.17
2018-05-15T22:30:20.944Z,14.23
2018-05-15T22:32:48.577Z,14.20
2018-05-15T22:35:16.182Z,14.16
2018-05-15T22:37:43.818Z,14.26
2018-05-15T22:40:11.418Z,14.28
2018-05-15T22:42:39.086Z,14.17
2018-05-15T22:45:06.680Z,14.25
2018-05-15T22:47:34.518Z,14.39
2018-05-15T22:50:02.115Z,14.31
2018-05-15T22:52:29.714Z,14.07
2018-05-15T22:54:57.347Z,14.25
2018-05-15T22:57:24.948Z,13.64
2018-05-15T22:59:52.562Z,13.66
2018-05-15T23:02:20.158Z,13.90
2018-05-15T23:04:48.775Z,13.83
2018-05-15T23:07:16.372Z,13.58
2018-05-15T23:09:43.984Z,13.60
2018-05-15T23:12:11.597Z,13.53
2018-05-15T23:14:39.198Z,13.62
2018-05-15T23:17:06.823Z,13.78
2018-05-15T23:19:34.429Z,13.70
2018-05-15T23:22:02.250Z,13.87
2018-05-15T23:24:29.845Z,13.70
2018-05-15T23:26:57.439Z,13.53
2018-05-15T23:29:25.096Z,13.71
2018-05-15T23:31:52.690Z,13.42
2018-05-15T23:34:20.315Z,13.53
2018-05-15T23:36:47.927Z,13.56
2018-05-15T23:39:15.567Z,13.54
2018-05-15T23:41:43.173Z,13.71
2018-05-15T23:44:10.789Z,13.61
2018-05-15T23:46:38.418Z,13.52
2018-05-15T23:49:06.010Z,13.72
2018-05-15T23:51:33.635Z,13.74
2018-05-15T23:54:01.246Z,13.74
2018-05-15T23:56:29.006Z,13.91
2018-05-15T23:58:56.606Z,14.07
